Time;durP1;ratioP1;P1;durP2;ratioP2;P2;SDS_P1;SDS_P2;PMS_P1;PMS_P2;Temp;Humidity;BMP_temperature;BMP_pressure;BME280_temperature;BME280_humidity;BME280_pressure;Samples;Min_cycle;Max_cycle;Signal;HPM_P1;HPM_P2
2022/03/10 00:01:45;;;;;;;19.75;10.27;;;2.90;99.90;;;;;;6272449;22;20024;-84
2022/03/10 00:04:11;;;;;;;19.48;10.93;;;3.40;99.90;;;;;;6272105;22;20027;-83
2022/03/10 00:06:37;;;;;;;22.20;11.18;;;2.90;99.90;;;;;;6270210;22;20047;-83
2022/03/10 00:09:03;;;;;;;23.52;11.57;;;2.90;99.90;;;;;;6272668;22;20114;-85
2022/03/10 00:11:28;;;;;;;22.13;10.88;;;2.90;99.90;;;;;;6272960;22;20015;-85
2022/03/10 00:13:54;;;;;;;18.42;10.27;;;3.00;99.90;;;;;;6270568;22;20012;-84
2022/03/10 00:16:21;;;;;;;21.65;10.60;;;2.90;99.90;;;;;;6272930;22;20020;-84
2022/03/10 00:18:47;;;;;;;18.80;11.23;;;2.90;99.90;;;;;;6273399;22;20026;-84
2022/03/10 00:21:13;;;;;;;19.88;11.93;;;2.90;99.90;;;;;;6272569;22;20065;-84
2022/03/10 00:27:20;;;;;;;19.98;11.60;;;2.80;99.90;;;;;;6259339;22;20085;-84
2022/03/10 00:29:46;;;;;;;19.35;10.85;;;2.80;99.90;;;;;;6213477;23;20020;-85
2022/03/10 00:32:12;;;;;;;17.23;10.25;;;2.70;99.90;;;;;;6240097;23;20027;-84
2022/03/10 00:34:37;;;;;;;20.35;10.60;;;2.70;99.90;;;;;;6214563;23;20020;-85
2022/03/10 00:37:03;;;;;;;16.35;9.70;;;2.70;99.90;;;;;;6241760;23;20159;-84
2022/03/10 00:39:29;;;;;;;17.52;10.18;;;2.70;99.90;;;;;;6239999;23;20024;-84
2022/03/10 00:41:54;;;;;;;19.60;10.10;;;3.10;99.90;;;;;;6241543;23;20066;-84
2022/03/10 00:44:20;;;;;;;15.20;9.15;;;2.70;99.90;;;;;;6241389;23;20019;-85
2022/03/10 00:46:46;;;;;;;21.65;10.73;;;3.80;99.90;;;;;;6241404;23;20052;-84
2022/03/10 00:49:12;;;;;;;17.17;9.43;;;3.80;99.90;;;;;;6241980;22;20023;-85
2022/03/10 00:51:37;;;;;;;19.08;9.32;;;2.70;99.90;;;;;;6241501;23;20031;-83
2022/03/10 00:54:03;;;;;;;18.73;10.82;;;2.70;99.90;;;;;;6241626;23;20336;-85
2022/03/10 00:56:29;;;;;;;17.08;10.27;;;2.60;99.90;;;;;;6241446;23;20441;-85
2022/03/10 00:58:54;;;;;;;18.45;10.50;;;2.60;99.90;;;;;;6241799;23;20043;-84
2022/03/10 01:01:20;;;;;;;19.70;10.85;;;2.60;99.90;;;;;;6241807;23;20018;-84
2022/03/10 01:03:45;;;;;;;17.23;10.65;;;2.60;99.90;;;;;;6241633;23;20020;-85
2022/03/10 01:06:11;;;;;;;19.55;10.30;;;2.60;99.90;;;;;;6239302;23;20353;-85
2022/03/10 01:08:37;;;;;;;18.40;10.60;;;2.60;99.90;;;;;;6241613;23;20024;-85
2022/03/10 01:11:03;;;;;;;18.00;10.35;;;2.60;99.90;;;;;;6241890;23;20012;-85
2022/03/10 01:13:28;;;;;;;22.98;10.98;;;2.70;99.90;;;;;;6241833;23;20111;-85
2022/03/10 01:15:54;;;;;;;20.80;10.43;;;2.60;99.90;;;;;;6241772;23;20459;-84
2022/03/10 01:18:19;;;;;;;20.83;10.40;;;2.60;99.90;;;;;;6241659;23;20066;-85
2022/03/10 01:20:45;;;;;;;19.15;9.57;;;2.60;99.90;;;;;;6241908;23;20012;-85
2022/03/10 01:23:11;;;;;;;20.33;10.18;;;3.70;99.90;;;;;;6241311;23;20024;-85
2022/03/10 01:25:37;;;;;;;17.20;10.18;;;2.60;99.90;;;;;;6241486;23;20023;-86
2022/03/10 01:28:03;;;;;;;16.15;9.48;;;2.60;99.90;;;;;;6241250;22;20397;-85
2022/03/10 01:30:29;;;;;;;15.48;9.30;;;2.60;99.90;;;;;;6239204;23;20032;-84
2022/03/10 01:32:55;;;;;;;19.08;10.23;;;2.90;99.90;;;;;;6241692;23;20016;-85
2022/03/10 01:35:20;;;;;;;18.88;9.55;;;2.60;99.90;;;;;;6241281;23;20020;-85
2022/03/10 01:37:46;;;;;;;17.60;10.43;;;3.00;99.90;;;;;;6239480;23;20023;-85
2022/03/10 01:40:14;;;;;;;17.90;9.75;;;2.60;99.90;;;;;;6242719;23;20448;-85
2022/03/10 01:42:40;;;;;;;17.55;9.75;;;2.60;99.90;;;;;;6243111;23;20016;-85
2022/03/10 01:45:07;;;;;;;18.45;10.45;;;2.60;99.90;;;;;;6243562;23;20031;-86
2022/03/10 01:47:33;;;;;;;17.55;9.48;;;2.60;99.90;;;;;;6243160;23;20088;-85
2022/03/10 01:49:59;;;;;;;21.77;10.35;;;2.50;99.90;;;;;;6242899;23;20684;-85
2022/03/10 01:52:25;;;;;;;16.98;9.43;;;2.50;99.90;;;;;;6241312;23;20024;-84
2022/03/10 01:54:51;;;;;;;20.67;9.90;;;2.50;99.90;;;;;;6243405;23;20031;-85
2022/03/10 01:57:17;;;;;;;20.30;10.43;;;2.50;99.90;;;;;;6243227;23;20012;-85
2022/03/10 01:59:43;;;;;;;18.00;10.68;;;2.40;99.90;;;;;;6243553;22;20016;-85
2022/03/10 02:02:09;;;;;;;18.35;10.45;;;2.50;99.90;;;;;;6215506;23;20362;-85
2022/03/10 02:04:35;;;;;;;19.13;10.50;;;2.40;99.90;;;;;;6243045;23;20028;-85
2022/03/10 02:10:16;;;;;;;21.20;11.80;;;2.40;99.90;;;;;;6241518;23;20012;-85
2022/03/10 02:12:42;;;;;;;17.95;10.98;;;2.20;99.90;;;;;;6242970;23;20453;-84
2022/03/10 02:18:07;;;;;;;19.00;10.88;;;2.20;99.90;;;;;;6242963;23;20020;-84
2022/03/10 02:20:34;;;;;;;20.10;11.20;;;2.90;99.90;;;;;;6241366;23;20024;-82
2022/03/10 02:23:00;;;;;;;18.15;11.00;;;2.10;99.90;;;;;;6243326;23;20009;-85
2022/03/10 02:25:27;;;;;;;18.48;10.10;;;2.10;99.90;;;;;;6242582;23;20297;-84
2022/03/10 02:27:54;;;;;;;19.42;11.38;;;2.00;99.90;;;;;;6241489;23;20429;-84
2022/03/10 02:30:22;;;;;;;19.88;10.68;;;2.00;99.90;;;;;;6243107;23;20078;-85
2022/03/10 02:32:48;;;;;;;19.92;10.23;;;2.00;99.90;;;;;;6215950;23;20024;-84
2022/03/10 02:35:15;;;;;;;20.85;11.10;;;1.90;99.90;;;;;;6243187;23;20016;-83
2022/03/10 02:37:41;;;;;;;16.23;9.65;;;1.90;99.90;;;;;;6240988;23;20115;-85
2022/03/10 02:40:08;;;;;;;18.92;10.73;;;1.90;99.90;;;;;;6242612;23;20413;-82
2022/03/10 02:42:34;;;;;;;19.60;11.10;;;1.90;99.90;;;;;;6241139;23;20016;-85
2022/03/10 02:45:01;;;;;;;19.00;10.55;;;1.80;99.90;;;;;;6242760;23;20016;-84
2022/03/10 02:47:27;;;;;;;17.95;10.07;;;1.80;99.90;;;;;;6243099;23;20020;-84
2022/03/10 02:49:53;;;;;;;22.40;11.88;;;1.80;99.90;;;;;;6243262;23;20053;-83
2022/03/10 02:52:18;;;;;;;19.50;10.80;;;1.80;99.90;;;;;;6243550;23;20310;-84
2022/03/10 02:54:44;;;;;;;19.88;9.95;;;1.80;99.90;;;;;;6243073;23;20012;-85
2022/03/10 02:57:14;;;;;;;21.00;10.68;;;1.70;99.90;;;;;;6242697;23;20074;-86
2022/03/10 02:59:40;;;;;;;19.50;11.45;;;1.70;99.90;;;;;;6242907;23;20026;-84
2022/03/10 03:02:06;;;;;;;19.42;11.10;;;1.70;99.90;;;;;;6242267;23;20016;-84
2022/03/10 03:04:32;;;;;;;16.90;10.00;;;1.70;99.90;;;;;;6243448;22;20028;-84
2022/03/10 03:06:58;;;;;;;21.67;11.10;;;1.60;99.90;;;;;;6242937;23;20016;-84
2022/03/10 03:09:24;;;;;;;25.48;11.23;;;1.60;99.90;;;;;;6240721;23;20154;-84
2022/03/10 03:11:50;;;;;;;19.75;10.48;;;1.70;99.90;;;;;;6241997;23;20465;-85
2022/03/10 03:14:16;;;;;;;20.63;10.63;;;1.60;99.90;;;;;;6242760;23;20015;-84
2022/03/10 03:16:41;;;;;;;21.67;11.57;;;2.50;99.90;;;;;;6242240;22;20573;-84
2022/03/10 03:19:07;;;;;;;20.45;11.10;;;1.60;99.90;;;;;;6242666;23;20026;-84
2022/03/10 03:21:33;;;;;;;19.08;10.82;;;1.60;99.90;;;;;;6242376;23;20051;-82
2022/03/10 03:23:59;;;;;;;20.23;10.82;;;2.50;99.90;;;;;;6240283;23;20024;-84
2022/03/10 03:26:24;;;;;;;20.17;10.63;;;2.50;99.90;;;;;;6242255;23;20032;-84
2022/03/10 03:28:50;;;;;;;17.70;10.93;;;1.60;99.90;;;;;;6241952;22;20012;-85
2022/03/10 03:31:16;;;;;;;19.77;10.15;;;1.60;99.90;;;;;;6242439;23;20099;-85
2022/03/10 03:33:42;;;;;;;32.60;10.82;;;1.60;99.90;;;;;;6242564;23;20027;-85
2022/03/10 03:36:08;;;;;;;23.42;11.52;;;1.60;99.90;;;;;;6240729;23;20012;-85
2022/03/10 03:38:34;;;;;;;18.00;10.23;;;1.60;99.90;;;;;;6242190;23;20458;-85
2022/03/10 03:41:00;;;;;;;22.10;11.32;;;1.60;99.90;;;;;;6242196;23;20011;-83
2022/03/10 03:43:25;;;;;;;20.70;11.50;;;1.50;99.90;;;;;;6241899;23;20016;-82
2022/03/10 03:45:51;;;;;;;18.92;10.20;;;1.50;99.90;;;;;;6242428;23;20368;-85
2022/03/10 03:48:17;;;;;;;20.23;11.23;;;1.50;99.90;;;;;;6242325;23;20031;-84
2022/03/10 03:50:42;;;;;;;23.45;10.88;;;1.50;99.90;;;;;;6240295;23;20043;-85
2022/03/10 03:53:08;;;;;;;18.38;10.80;;;1.50;99.90;;;;;;6241881;23;20012;-85
2022/03/10 03:55:33;;;;;;;19.35;11.05;;;1.50;99.90;;;;;;6242056;23;20023;-84
2022/03/10 03:57:59;;;;;;;20.77;11.00;;;1.50;99.90;;;;;;6241634;23;20012;-85
2022/03/10 04:00:25;;;;;;;20.95;11.10;;;1.50;99.90;;;;;;6242061;23;20396;-84
2022/03/10 04:02:50;;;;;;;20.00;10.63;;;1.50;99.90;;;;;;6241526;23;20012;-84
2022/03/10 04:05:16;;;;;;;18.63;10.48;;;1.40;99.90;;;;;;6241809;23;20012;-84
2022/03/10 04:07:42;;;;;;;19.58;10.95;;;1.40;99.90;;;;;;6242184;23;20016;-84
2022/03/10 04:10:08;;;;;;;23.20;12.10;;;1.40;99.90;;;;;;6239610;23;20341;-80
2022/03/10 04:12:35;;;;;;;19.92;10.90;;;1.40;99.90;;;;;;6241640;23;20016;-84
2022/03/10 04:15:01;;;;;;;19.70;11.20;;;1.40;99.90;;;;;;6242092;23;20023;-84
2022/03/10 04:17:27;;;;;;;22.00;12.25;;;1.40;99.90;;;;;;6242292;23;20277;-84
2022/03/10 04:19:53;;;;;;;22.45;11.98;;;2.20;99.90;;;;;;6241593;23;20019;-84
2022/03/10 04:22:19;;;;;;;21.45;11.82;;;1.40;99.90;;;;;;6242048;23;20055;-84
2022/03/10 04:24:45;;;;;;;21.48;11.82;;;1.40;99.90;;;;;;6241569;23;20330;-80
2022/03/10 04:27:11;;;;;;;25.20;12.82;;;1.40;99.90;;;;;;6241771;23;20051;-83
2022/03/10 04:29:37;;;;;;;26.52;11.65;;;1.40;99.90;;;;;;6241449;23;20108;-84
2022/03/10 04:32:03;;;;;;;23.48;11.02;;;1.40;99.90;;;;;;6241583;23;20118;-83
2022/03/10 04:34:29;;;;;;;19.27;11.02;;;1.40;99.90;;;;;;6241679;23;20126;-84
2022/03/10 04:36:55;;;;;;;20.00;10.88;;;1.40;99.90;;;;;;6239920;23;20104;-83
2022/03/10 04:39:21;;;;;;;22.67;11.63;;;1.30;99.90;;;;;;6241359;23;20481;-84
2022/03/10 04:41:47;;;;;;;20.55;11.55;;;1.40;99.90;;;;;;6241898;23;20020;-83
2022/03/10 04:44:13;;;;;;;17.55;10.15;;;1.30;99.90;;;;;;6240763;22;20012;-84
2022/03/10 04:46:38;;;;;;;20.77;11.68;;;1.30;99.90;;;;;;6241896;22;20016;-83
2022/03/10 04:49:05;;;;;;;26.48;11.93;;;1.30;99.90;;;;;;6241973;23;20057;-84
2022/03/10 04:51:31;;;;;;;19.15;10.85;;;1.30;99.90;;;;;;6239913;23;20024;-82
2022/03/10 04:53:57;;;;;;;18.15;10.48;;;1.30;99.90;;;;;;6241225;23;20194;-83
2022/03/10 04:56:22;;;;;;;23.52;11.98;;;1.30;99.90;;;;;;6241817;23;20016;-84
2022/03/10 04:58:48;;;;;;;21.30;12.20;;;1.30;99.90;;;;;;6239611;23;20349;-83
2022/03/10 05:01:14;;;;;;;21.25;11.38;;;1.30;99.90;;;;;;6241300;23;20376;-84
2022/03/10 05:03:40;;;;;;;20.70;11.30;;;1.30;99.90;;;;;;6239240;23;20016;-83
2022/03/10 05:06:05;;;;;;;20.20;9.90;;;1.40;99.90;;;;;;6241827;23;20020;-84
2022/03/10 05:08:31;;;;;;;19.90;11.35;;;1.40;99.90;;;;;;6241542;23;20012;-80
2022/03/10 05:10:57;;;;;;;22.83;11.13;;;1.40;99.90;;;;;;6242251;23;20027;-84
2022/03/10 05:13:24;;;;;;;20.63;11.02;;;1.40;99.90;;;;;;6242696;23;20009;-83
2022/03/10 05:15:50;;;;;;;20.48;11.27;;;2.50;99.90;;;;;;6243737;23;20020;-85
2022/03/10 05:18:16;;;;;;;18.58;10.80;;;2.60;99.90;;;;;;6243870;23;20020;-83
2022/03/10 05:20:42;;;;;;;19.80;10.80;;;2.40;99.90;;;;;;6244272;23;20039;-84
2022/03/10 05:23:07;;;;;;;21.13;10.85;;;1.40;99.90;;;;;;6242372;23;20358;-84
2022/03/10 05:25:34;;;;;;;19.70;11.27;;;1.30;99.90;;;;;;6244472;23;20126;-84
2022/03/10 05:28:00;;;;;;;26.08;10.95;;;1.40;99.90;;;;;;6243638;23;20044;-84
2022/03/10 05:30:26;;;;;;;17.08;10.10;;;1.40;99.90;;;;;;6243938;22;20074;-84
2022/03/10 05:32:51;;;;;;;21.80;11.63;;;1.40;99.90;;;;;;6242005;23;20012;-84
2022/03/10 05:35:18;;;;;;;18.60;9.93;;;1.30;99.90;;;;;;6243937;23;20087;-84
2022/03/10 05:37:45;;;;;;;17.23;10.18;;;1.40;99.90;;;;;;6243381;23;20520;-84
2022/03/10 05:40:15;;;;;;;19.80;10.95;;;1.40;99.90;;;;;;6241378;23;20027;-84
2022/03/10 05:42:41;;;;;;;17.70;9.95;;;1.40;99.90;;;;;;6243341;23;20072;-83
2022/03/10 05:45:08;;;;;;;22.85;11.15;;;1.40;99.90;;;;;;6243085;23;20345;-82
2022/03/10 05:47:35;;;;;;;20.65;10.68;;;1.40;99.90;;;;;;6242704;23;20026;-80
2022/03/10 05:50:04;;;;;;;17.92;10.50;;;1.40;99.90;;;;;;6243322;23;20054;-85
2022/03/10 05:52:31;;;;;;;18.42;10.35;;;1.40;99.90;;;;;;6243322;23;20294;-83
2022/03/10 05:54:57;;;;;;;20.70;10.20;;;1.40;99.90;;;;;;6243604;23;20012;-83
2022/03/10 05:57:23;;;;;;;25.58;10.85;;;1.40;99.90;;;;;;6243566;23;20012;-83
2022/03/10 05:59:48;;;;;;;22.92;11.52;;;2.20;99.90;;;;;;6243442;23;20576;-82
2022/03/10 06:02:18;;;;;;;19.48;10.63;;;1.40;99.90;;;;;;6242418;23;20011;-83
2022/03/10 06:04:44;;;;;;;19.15;9.27;;;1.40;99.90;;;;;;6243098;23;20042;-83
2022/03/10 06:07:10;;;;;;;19.10;10.45;;;1.50;99.90;;;;;;6242589;23;20016;-83
2022/03/10 06:09:36;;;;;;;16.48;10.40;;;1.40;99.90;;;;;;6215279;23;20012;-83
2022/03/10 06:12:02;;;;;;;18.42;10.35;;;1.50;99.90;;;;;;6243019;23;20520;-83
2022/03/10 06:14:28;;;;;;;19.63;10.77;;;1.50;99.90;;;;;;6242893;23;20127;-83
2022/03/10 06:16:54;;;;;;;19.60;10.25;;;1.40;99.90;;;;;;6243032;22;20022;-83
2022/03/10 06:19:19;;;;;;;18.35;9.88;;;1.50;99.90;;;;;;6240927;23;20069;-83
2022/03/10 06:21:46;;;;;;;20.83;10.40;;;1.50;99.90;;;;;;6243092;23;20027;-84
2022/03/10 06:24:12;;;;;;;22.90;11.52;;;1.50;99.90;;;;;;6243002;23;20020;-84
2022/03/10 06:26:38;;;;;;;32.45;15.18;;;1.50;99.90;;;;;;6242794;23;20345;-83
2022/03/10 06:29:05;;;;;;;25.80;13.85;;;1.60;99.90;;;;;;6242729;23;20024;-80
2022/03/10 06:31:31;;;;;;;27.30;14.32;;;1.60;99.90;;;;;;6242772;23;20012;-84
2022/03/10 06:33:58;;;;;;;24.13;12.73;;;1.60;99.90;;;;;;6240729;23;20050;-83
2022/03/10 06:36:24;;;;;;;21.02;11.60;;;1.60;99.90;;;;;;6242937;23;20078;-82
2022/03/10 06:38:50;;;;;;;21.30;10.38;;;2.60;99.90;;;;;;6242862;23;20044;-83
2022/03/10 06:41:16;;;;;;;20.65;10.93;;;1.60;99.90;;;;;;6240713;23;20342;-84
2022/03/10 06:43:41;;;;;;;23.13;11.15;;;1.70;99.90;;;;;;6242940;23;20456;-85
2022/03/10 06:46:07;;;;;;;22.05;11.93;;;1.70;99.90;;;;;;6242518;23;20020;-84
2022/03/10 06:48:33;;;;;;;24.17;13.10;;;1.70;99.90;;;;;;6242486;23;20437;-84
2022/03/10 06:50:58;;;;;;;23.23;12.30;;;1.70;99.90;;;;;;6243026;23;20546;-84
2022/03/10 06:53:24;;;;;;;22.83;12.40;;;1.70;99.90;;;;;;6242561;23;20059;-82
2022/03/10 06:55:50;;;;;;;18.65;10.85;;;1.80;99.90;;;;;;6240532;23;20567;-83
2022/03/10 06:58:15;;;;;;;19.63;11.23;;;1.80;99.90;;;;;;6242677;23;20020;-82
2022/03/10 07:00:41;;;;;;;22.90;11.15;;;1.80;99.90;;;;;;6240768;23;20028;-83
2022/03/10 07:03:07;;;;;;;20.55;10.98;;;1.90;99.90;;;;;;6242915;23;20087;-84
2022/03/10 07:05:32;;;;;;;18.67;10.88;;;1.90;99.90;;;;;;6240182;23;20016;-84
2022/03/10 07:07:58;;;;;;;20.73;11.02;;;2.00;99.90;;;;;;6242354;23;20016;-83
2022/03/10 07:10:25;;;;;;;24.85;11.98;;;2.00;99.90;;;;;;6239975;23;20138;-83
2022/03/10 07:12:50;;;;;;;19.98;10.70;;;2.10;99.90;;;;;;6242568;22;20043;-83
2022/03/10 07:15:16;;;;;;;18.65;10.15;;;2.10;99.90;;;;;;6242630;23;20039;-82
2022/03/10 07:17:42;;;;;;;18.65;11.73;;;2.20;99.90;;;;;;6240406;23;20016;-83
2022/03/10 07:20:09;;;;;;;25.65;11.25;;;2.30;99.90;;;;;;6241995;23;20026;-84
2022/03/10 07:22:35;;;;;;;21.33;12.05;;;2.20;99.90;;;;;;6242647;23;20009;-85
2022/03/10 07:25:02;;;;;;;22.92;11.85;;;2.30;99.90;;;;;;6242672;23;20016;-84
2022/03/10 07:27:28;;;;;;;21.58;11.65;;;3.50;99.90;;;;;;6242276;23;20024;-86
2022/03/10 07:29:53;;;;;;;23.25;10.70;;;2.50;99.90;;;;;;6242356;23;20016;-85
2022/03/10 07:32:19;;;;;;;19.40;11.40;;;2.60;99.90;;;;;;6239989;23;20058;-85
2022/03/10 07:34:47;;;;;;;25.75;12.40;;;2.70;99.90;;;;;;6242379;23;20024;-85
2022/03/10 07:37:15;;;;;;;24.38;13.70;;;3.70;99.90;;;;;;6241554;23;20445;-83
2022/03/10 07:39:40;;;;;;;22.30;12.60;;;2.80;99.90;;;;;;6240387;23;20107;-83
2022/03/10 07:42:06;;;;;;;21.50;12.00;;;2.90;99.90;;;;;;6242279;23;20101;-85
2022/03/10 07:44:32;;;;;;;23.67;12.15;;;3.00;99.90;;;;;;6242875;23;20027;-84
2022/03/10 07:46:57;;;;;;;24.90;12.20;;;3.10;99.90;;;;;;6242596;23;20012;-84
2022/03/10 07:49:23;;;;;;;19.23;11.55;;;3.20;99.90;;;;;;6242389;23;20095;-84
2022/03/10 07:51:49;;;;;;;27.15;11.65;;;3.90;99.90;;;;;;6239869;23;20023;-84
2022/03/10 07:54:14;;;;;;;22.90;12.48;;;3.30;99.90;;;;;;6242203;23;20393;-84
2022/03/10 07:56:40;;;;;;;20.40;12.13;;;3.40;99.90;;;;;;6242559;23;20616;-86
2022/03/10 07:59:06;;;;;;;19.75;11.15;;;3.50;99.90;;;;;;6240595;23;20048;-83
2022/03/10 08:01:31;;;;;;;22.67;12.25;;;3.60;99.90;;;;;;6242352;22;20039;-83
2022/03/10 08:03:57;;;;;;;24.00;11.73;;;3.70;99.90;;;;;;6242308;23;20020;-84
2022/03/10 08:06:25;;;;;;;19.88;11.52;;;3.80;99.90;;;;;;6239788;23;20066;-84
2022/03/10 08:08:51;;;;;;;23.33;12.32;;;4.60;99.90;;;;;;6241924;23;20147;-85
2022/03/10 08:11:17;;;;;;;19.70;11.23;;;4.00;99.90;;;;;;6242158;23;20027;-85
2022/03/10 08:13:43;;;;;;;20.20;11.93;;;4.20;99.90;;;;;;6239583;23;20074;-83
2022/03/10 08:16:10;;;;;;;20.25;11.88;;;5.00;99.90;;;;;;6242113;22;20012;-86
2022/03/10 08:18:36;;;;;;;22.60;11.60;;;4.40;99.90;;;;;;6241863;23;20016;-85
2022/03/10 08:21:02;;;;;;;23.15;11.57;;;4.50;99.90;;;;;;6240221;23;20016;-81
2022/03/10 08:23:28;;;;;;;21.75;12.27;;;4.60;99.90;;;;;;6241711;23;20026;-85
2022/03/10 08:25:54;;;;;;;23.60;12.75;;;5.30;99.90;;;;;;6241991;23;20023;-85
2022/03/10 08:28:20;;;;;;;19.73;11.75;;;5.80;99.90;;;;;;6241588;23;20019;-84
2022/03/10 08:30:46;;;;;;;21.13;11.68;;;5.00;99.90;;;;;;6242251;22;20020;-84
2022/03/10 08:33:11;;;;;;;20.73;12.00;;;5.10;99.90;;;;;;6242276;22;20051;-83
2022/03/10 08:35:37;;;;;;;18.80;11.18;;;5.40;99.90;;;;;;6241794;23;20150;-83
2022/03/10 08:38:03;;;;;;;24.15;12.73;;;6.30;99.90;;;;;;6241255;23;20039;-84
2022/03/10 08:40:29;;;;;;;20.25;11.63;;;5.50;99.90;;;;;;6242286;23;20043;-84
2022/03/10 08:42:55;;;;;;;19.27;11.73;;;5.60;99.90;;;;;;6241994;23;20437;-85
2022/03/10 08:45:25;;;;;;;24.05;11.77;;;5.80;99.90;;;;;;6239742;23;20016;-85
2022/03/10 08:47:51;;;;;;;18.20;11.18;;;6.80;99.90;;;;;;6241664;23;20012;-87
2022/03/10 08:50:17;;;;;;;22.23;12.73;;;6.20;99.90;;;;;;6241698;23;20008;-85
2022/03/10 08:52:43;;;;;;;20.70;12.10;;;7.20;99.90;;;;;;6241283;23;20103;-85
2022/03/10 08:55:09;;;;;;;20.73;12.10;;;7.20;99.90;;;;;;6241863;23;20023;-84
2022/03/10 08:57:36;;;;;;;21.08;12.45;;;7.00;99.90;;;;;;6241771;23;20349;-85
2022/03/10 09:00:03;;;;;;;21.33;12.38;;;7.90;99.90;;;;;;6241654;22;20016;-85
2022/03/10 09:02:28;;;;;;;21.27;11.63;;;7.50;99.90;;;;;;6241822;23;20034;-83
2022/03/10 09:04:54;;;;;;;24.83;13.77;;;7.80;99.90;;;;;;6241882;23;20437;-83
2022/03/10 09:07:20;;;;;;;26.23;13.93;;;8.50;99.90;;;;;;6241934;23;20023;-84
2022/03/10 09:09:45;;;;;;;23.13;13.80;;;8.90;99.90;;;;;;6241412;22;20024;-83
2022/03/10 09:12:12;;;;;;;23.85;13.63;;;8.80;99.90;;;;;;6241879;23;20020;-83
2022/03/10 09:14:38;;;;;;;19.98;12.98;;;8.90;99.90;;;;;;6239702;23;20062;-82
2022/03/10 09:17:04;;;;;;;19.73;12.57;;;9.20;99.70;;;;;;6241895;23;20019;-83
2022/03/10 09:19:29;;;;;;;18.45;12.32;;;9.40;99.10;;;;;;6241252;23;20111;-84
2022/03/10 09:21:55;;;;;;;22.15;13.20;;;10.00;98.70;;;;;;6241702;23;20035;-83
2022/03/10 09:24:21;;;;;;;23.30;12.15;;;10.60;98.40;;;;;;6241370;22;20031;-87
2022/03/10 09:26:47;;;;;;;20.88;11.85;;;10.10;97.40;;;;;;6241178;23;20039;-84
2022/03/10 09:29:12;;;;;;;20.73;13.32;;;10.30;96.60;;;;;;6241409;22;20024;-84
2022/03/10 09:31:38;;;;;;;18.42;11.98;;;10.50;95.90;;;;;;6241715;23;20078;-84
2022/03/10 09:34:04;;;;;;;23.88;12.38;;;11.10;96.10;;;;;;6238712;23;20588;-85
2022/03/10 09:36:33;;;;;;;20.35;12.18;;;11.00;96.30;;;;;;6241424;23;20027;-86
2022/03/10 09:38:58;;;;;;;22.00;12.45;;;11.60;94.60;;;;;;6241496;23;20527;-86
2022/03/10 09:41:25;;;;;;;19.77;13.00;;;11.40;94.60;;;;;;6238927;23;20028;-85
2022/03/10 09:43:51;;;;;;;18.92;12.57;;;11.60;94.00;;;;;;6241548;23;20019;-86
2022/03/10 09:46:17;;;;;;;20.40;12.57;;;12.40;93.30;;;;;;6241647;23;20024;-87
2022/03/10 09:48:42;;;;;;;24.85;12.63;;;12.10;93.20;;;;;;6239458;23;20111;-85
2022/03/10 09:51:09;;;;;;;20.08;12.88;;;12.20;92.40;;;;;;6239824;23;20107;-85
2022/03/10 09:53:36;;;;;;;24.45;12.48;;;12.40;91.70;;;;;;6241480;23;20021;-87
2022/03/10 09:56:02;;;;;;;21.63;13.02;;;12.60;91.80;;;;;;6241062;23;20583;-86
2022/03/10 09:58:29;;;;;;;21.00;12.13;;;12.80;90.90;;;;;;6239617;23;20054;-85
2022/03/10 10:01:00;;;;;;;21.15;12.13;;;13.40;90.30;;;;;;6240602;23;20032;-87
2022/03/10 10:03:25;;;;;;;19.70;12.35;;;13.60;88.50;;;;;;6243329;23;20399;-86
2022/03/10 10:06:00;;;;;;;20.00;12.38;;;13.70;86.80;;;;;;6240780;23;20016;-85
2022/03/10 10:08:26;;;;;;;19.55;12.07;;;13.80;85.80;;;;;;6243056;23;20483;-82
2022/03/10 10:10:56;;;;;;;18.85;11.82;;;13.80;86.70;;;;;;6243334;23;20337;-83
2022/03/10 10:13:27;;;;;;;19.45;12.13;;;13.80;84.20;;;;;;6243484;23;20023;-85
2022/03/10 10:16:02;;;;;;;22.05;12.57;;;13.90;80.80;;;;;;6242672;23;20109;-83
2022/03/10 10:18:29;;;;;;;23.27;12.73;;;14.00;79.40;;;;;;6243293;23;20337;-82
2022/03/10 10:20:58;;;;;;;20.77;12.35;;;14.40;80.30;;;;;;6216355;23;20024;-80
2022/03/10 10:23:29;;;;;;;18.23;11.95;;;14.30;75.40;;;;;;6216122;23;20035;-84
2022/03/10 10:25:58;;;;;;;19.63;12.77;;;14.40;73.50;;;;;;6215823;23;20028;-80
2022/03/10 10:28:27;;;;;;;20.88;13.18;;;14.40;71.50;;;;;;6242192;23;20027;-80
2022/03/10 10:31:21;;;;;;;23.10;12.43;;;14.50;71.20;;;;;;6240801;23;20080;-79
2022/03/10 10:34:36;;;;;;;19.75;13.55;;;14.80;72.30;;;;;;6240218;23;20016;-81
2022/03/10 10:37:01;;;;;;;20.95;12.48;;;14.80;68.10;;;;;;6223815;22;20027;-80
2022/03/10 10:39:27;;;;;;;24.58;13.55;;;14.90;69.60;;;;;;6273634;22;20622;-83
2022/03/10 10:41:53;;;;;;;28.27;13.52;;;15.00;66.80;;;;;;6271291;22;20468;-83
2022/03/10 10:44:26;;;;;;;19.52;13.05;;;15.00;68.00;;;;;;6272742;22;20146;-81
2022/03/10 10:46:58;;;;;;;24.17;12.63;;;15.10;66.20;;;;;;6271635;22;20027;-82
2022/03/10 10:49:24;;;;;;;21.52;12.63;;;15.10;64.00;;;;;;6270908;22;20015;-81
2022/03/10 10:51:51;;;;;;;20.33;13.50;;;15.40;63.70;;;;;;6273533;22;20051;-80
2022/03/10 10:54:23;;;;;;;27.30;13.80;;;15.50;63.80;;;;;;6272902;22;20019;-79
2022/03/10 10:56:57;;;;;;;24.75;14.02;;;15.30;62.60;;;;;;6273187;22;20069;-79
2022/03/10 10:59:28;;;;;;;24.63;13.13;;;15.40;62.60;;;;;;6272731;22;20019;-80
2022/03/10 11:02:10;;;;;;;22.05;14.27;;;15.60;63.20;;;;;;6273506;22;20018;-79
2022/03/10 11:04:41;;;;;;;23.45;14.48;;;15.70;61.00;;;;;;6272823;22;20098;-81
2022/03/10 11:07:09;;;;;;;18.92;13.07;;;15.90;61.60;;;;;;6271268;22;20016;-78
2022/03/10 11:09:36;;;;;;;19.95;13.75;;;15.90;60.10;;;;;;6272921;22;20445;-79
2022/03/10 11:12:03;;;;;;;20.85;13.35;;;16.00;60.50;;;;;;6273267;22;20020;-78
2022/03/10 11:14:29;;;;;;;22.90;14.27;;;16.10;61.50;;;;;;6273093;22;20340;-76
2022/03/10 11:16:57;;;;;;;25.63;15.30;;;16.30;61.30;;;;;;6272701;22;20027;-77
2022/03/10 11:19:26;;;;;;;26.50;14.10;;;16.40;60.80;;;;;;6271635;22;20457;-78
2022/03/10 11:22:17;;;;;;;18.73;13.38;;;16.50;60.50;;;;;;6273135;22;20016;-76
2022/03/10 11:25:12;;;;;;;25.48;14.75;;;16.70;60.10;;;;;;6273034;22;20083;-79
2022/03/10 11:27:51;;;;;;;22.20;14.00;;;16.70;59.40;;;;;;6273380;22;20144;-78
2022/03/10 11:30:18;;;;;;;21.20;13.55;;;16.90;59.40;;;;;;6272532;22;20020;-78
2022/03/10 11:33:12;;;;;;;24.80;14.38;;;17.10;59.70;;;;;;6273485;22;20065;-78
2022/03/10 11:35:40;;;;;;;24.00;13.93;;;17.30;58.10;;;;;;6272904;22;20586;-79
2022/03/10 11:38:06;;;;;;;22.48;14.50;;;17.30;58.30;;;;;;6272638;22;20589;-79
2022/03/10 11:40:50;;;;;;;25.05;14.68;;;17.40;57.20;;;;;;6273028;22;20051;-83
2022/03/10 11:43:20;;;;;;;20.42;14.00;;;17.50;56.70;;;;;;6273189;22;20019;-80
2022/03/10 11:45:46;;;;;;;22.75;14.32;;;17.60;56.00;;;;;;6272491;22;20035;-79
2022/03/10 11:48:24;;;;;;;25.88;13.43;;;17.50;55.00;;;;;;6273170;22;20012;-80
2022/03/10 11:50:51;;;;;;;25.58;14.73;;;17.50;54.60;;;;;;6270629;22;20016;-78
2022/03/10 11:53:17;;;;;;;22.88;14.45;;;17.40;54.40;;;;;;6272761;22;20033;-82
2022/03/10 11:55:53;;;;;;;23.30;14.23;;;17.50;53.40;;;;;;6272600;22;20622;-86
2022/03/10 11:58:36;;;;;;;20.73;14.55;;;17.50;53.90;;;;;;6273182;22;20077;-83
2022/03/10 12:01:02;;;;;;;23.25;15.48;;;17.60;53.80;;;;;;6272996;22;20020;-84
2022/03/10 12:03:35;;;;;;;23.38;15.35;;;17.60;54.20;;;;;;6270687;22;20020;-80
2022/03/10 12:06:00;;;;;;;23.23;15.07;;;17.50;53.30;;;;;;6272749;22;20020;-82
2022/03/10 12:08:31;;;;;;;23.55;15.65;;;17.50;53.70;;;;;;6272687;22;20038;-82
2022/03/10 12:10:59;;;;;;;21.73;15.05;;;17.60;52.70;;;;;;6272630;22;20054;-80
2022/03/10 12:13:33;;;;;;;23.23;16.13;;;17.60;54.00;;;;;;6272731;22;20016;-81
2022/03/10 12:16:03;;;;;;;24.38;15.43;;;17.60;52.90;;;;;;6272209;22;20012;-80
2022/03/10 12:18:39;;;;;;;24.10;15.73;;;17.70;53.70;;;;;;6272358;22;20016;-78
2022/03/10 12:21:24;;;;;;;22.73;14.90;;;17.90;53.00;;;;;;6272288;22;20463;-81
2022/03/10 12:23:56;;;;;;;23.08;15.43;;;17.80;53.40;;;;;;6272342;22;20019;-85
2022/03/10 12:26:48;;;;;;;23.70;15.68;;;17.90;52.70;;;;;;6270462;22;20069;-82
2022/03/10 12:29:13;;;;;;;21.50;14.38;;;17.80;52.00;;;;;;6266684;22;20353;-81
2022/03/10 12:31:41;;;;;;;26.27;14.75;;;18.00;52.60;;;;;;6272203;22;20023;-79
2022/03/10 12:34:14;;;;;;;24.00;14.85;;;18.10;52.50;;;;;;6272549;22;20081;-79
2022/03/10 12:36:42;;;;;;;21.42;15.13;;;18.10;51.00;;;;;;6272327;22;20015;-82
2022/03/10 12:39:14;;;;;;;26.13;15.52;;;18.00;51.40;;;;;;6273140;22;20073;-82
2022/03/10 12:41:48;;;;;;;22.10;14.52;;;18.20;50.80;;;;;;6272343;22;20051;-82
2022/03/10 12:44:18;;;;;;;22.08;15.07;;;18.20;50.00;;;;;;6272720;22;20087;-80
2022/03/10 12:46:53;;;;;;;20.73;13.93;;;18.40;50.90;;;;;;6270009;22;20027;-86